sensor_id;sensor_type;location;lat;lon;timestamp;P1;durP1;ratioP1;P2;durP2;ratioP2
78916;SDS011;68315;48.608;11.436;2023-05-07T00:00:34;1.67;;;1.58;;
78916;SDS011;68315;48.608;11.436;2023-05-07T00:02:59;1.20;;;1.00;;
78916;SDS011;68315;48.608;11.436;2023-05-07T00:05:25;1.30;;;1.20;;
78916;SDS011;68315;48.608;11.436;2023-05-07T00:07:50;1.40;;;1.30;;
78916;SDS011;68315;48.608;11.436;2023-05-07T00:10:17;1.15;;;1.05;;
78916;SDS011;68315;48.608;11.436;2023-05-07T00:12:43;1.42;;;1.33;;
78916;SDS011;68315;48.608;11.436;2023-05-07T00:15:08;1.20;;;1.10;;
78916;SDS011;68315;48.608;11.436;2023-05-07T00:17:33;1.55;;;1.45;;
78916;SDS011;68315;48.608;11.436;2023-05-07T00:19:59;1.40;;;1.30;;
78916;SDS011;68315;48.608;11.436;2023-05-07T00:22:24;1.70;;;1.60;;
78916;SDS011;68315;48.608;11.436;2023-05-07T00:24:50;4.20;;;1.75;;
78916;SDS011;68315;48.608;11.436;2023-05-07T00:27:15;1.25;;;1.15;;
78916;SDS011;68315;48.608;11.436;2023-05-07T00:29:40;1.42;;;1.30;;
78916;SDS011;68315;48.608;11.436;2023-05-07T00:32:06;2.25;;;1.17;;
78916;SDS011;68315;48.608;11.436;2023-05-07T00:34:31;1.10;;;1.00;;
78916;SDS011;68315;48.608;11.436;2023-05-07T00:36:56;0.82;;;0.82;;
78916;SDS011;68315;48.608;11.436;2023-05-07T00:39:21;2.20;;;1.27;;
78916;SDS011;68315;48.608;11.436;2023-05-07T00:41:47;1.40;;;1.10;;
78916;SDS011;68315;48.608;11.436;2023-05-07T00:44:12;1.30;;;1.20;;
78916;SDS011;68315;48.608;11.436;2023-05-07T00:46:38;1.50;;;1.30;;
78916;SDS011;68315;48.608;11.436;2023-05-07T00:49:03;1.33;;;1.10;;
78916;SDS011;68315;48.608;11.436;2023-05-07T00:51:30;1.20;;;1.10;;
78916;SDS011;68315;48.608;11.436;2023-05-07T00:53:55;0.95;;;0.90;;
78916;SDS011;68315;48.608;11.436;2023-05-07T00:56:21;1.15;;;1.05;;
78916;SDS011;68315;48.608;11.436;2023-05-07T00:58:47;1.23;;;1.13;;
78916;SDS011;68315;48.608;11.436;2023-05-07T01:01:12;1.90;;;1.10;;
78916;SDS011;68315;48.608;11.436;2023-05-07T01:03:38;1.38;;;1.10;;
78916;SDS011;68315;48.608;11.436;2023-05-07T01:06:03;0.90;;;0.90;;
78916;SDS011;68315;48.608;11.436;2023-05-07T01:08:29;1.05;;;1.05;;
78916;SDS011;68315;48.608;11.436;2023-05-07T01:10:56;1.40;;;1.30;;
78916;SDS011;68315;48.608;11.436;2023-05-07T01:13:22;1.35;;;1.25;;
78916;SDS011;68315;48.608;11.436;2023-05-07T01:15:49;3.33;;;1.75;;
78916;SDS011;68315;48.608;11.436;2023-05-07T01:18:15;2.95;;;1.90;;
78916;SDS011;68315;48.608;11.436;2023-05-07T01:20:40;3.63;;;2.30;;
78916;SDS011;68315;48.608;11.436;2023-05-07T01:23:06;2.00;;;1.58;;
78916;SDS011;68315;48.608;11.436;2023-05-07T01:25:32;2.25;;;1.70;;
78916;SDS011;68315;48.608;11.436;2023-05-07T01:27:57;3.95;;;2.08;;
78916;SDS011;68315;48.608;11.436;2023-05-07T01:30:24;1.70;;;1.60;;
78916;SDS011;68315;48.608;11.436;2023-05-07T01:32:57;2.85;;;1.70;;
78916;SDS011;68315;48.608;11.436;2023-05-07T01:35:24;1.40;;;1.30;;
78916;SDS011;68315;48.608;11.436;2023-05-07T01:37:52;1.90;;;1.50;;
78916;SDS011;68315;48.608;11.436;2023-05-07T01:40:18;2.30;;;2.00;;
78916;SDS011;68315;48.608;11.436;2023-05-07T01:42:43;2.72;;;2.00;;
78916;SDS011;68315;48.608;11.436;2023-05-07T01:45:10;3.20;;;1.70;;
78916;SDS011;68315;48.608;11.436;2023-05-07T01:47:36;2.03;;;1.75;;
78916;SDS011;68315;48.608;11.436;2023-05-07T01:50:03;2.17;;;1.88;;
78916;SDS011;68315;48.608;11.436;2023-05-07T01:52:30;2.30;;;2.10;;
78916;SDS011;68315;48.608;11.436;2023-05-07T01:54:56;2.35;;;2.15;;
78916;SDS011;68315;48.608;11.436;2023-05-07T01:57:21;2.00;;;1.80;;
78916;SDS011;68315;48.608;11.436;2023-05-07T01:59:46;1.80;;;1.70;;
78916;SDS011;68315;48.608;11.436;2023-05-07T02:02:11;1.63;;;1.23;;
78916;SDS011;68315;48.608;11.436;2023-05-07T02:04:37;1.88;;;1.77;;
78916;SDS011;68315;48.608;11.436;2023-05-07T02:07:02;1.75;;;1.40;;
78916;SDS011;68315;48.608;11.436;2023-05-07T02:09:27;1.63;;;1.40;;
78916;SDS011;68315;48.608;11.436;2023-05-07T02:11:53;1.48;;;1.25;;
78916;SDS011;68315;48.608;11.436;2023-05-07T02:14:18;1.20;;;1.10;;
78916;SDS011;68315;48.608;11.436;2023-05-07T02:16:45;2.50;;;1.40;;
78916;SDS011;68315;48.608;11.436;2023-05-07T02:19:10;1.80;;;1.70;;
78916;SDS011;68315;48.608;11.436;2023-05-07T02:21:35;2.15;;;1.70;;
78916;SDS011;68315;48.608;11.436;2023-05-07T02:24:00;1.75;;;1.65;;
78916;SDS011;68315;48.608;11.436;2023-05-07T02:26:26;1.45;;;1.35;;
78916;SDS011;68315;48.608;11.436;2023-05-07T02:28:51;1.30;;;1.20;;
78916;SDS011;68315;48.608;11.436;2023-05-07T02:31:16;1.33;;;1.23;;
78916;SDS011;68315;48.608;11.436;2023-05-07T02:33:42;1.40;;;1.30;;
78916;SDS011;68315;48.608;11.436;2023-05-07T02:36:08;2.30;;;1.73;;
78916;SDS011;68315;48.608;11.436;2023-05-07T02:38:34;1.55;;;1.45;;
78916;SDS011;68315;48.608;11.436;2023-05-07T02:40:59;1.85;;;1.40;;
78916;SDS011;68315;48.608;11.436;2023-05-07T02:43:24;1.50;;;1.40;;
78916;SDS011;68315;48.608;11.436;2023-05-07T02:45:59;1.92;;;1.38;;
78916;SDS011;68315;48.608;11.436;2023-05-07T02:48:31;1.50;;;1.40;;
78916;SDS011;68315;48.608;11.436;2023-05-07T02:50:57;1.40;;;1.30;;
78916;SDS011;68315;48.608;11.436;2023-05-07T02:53:23;1.48;;;1.38;;
78916;SDS011;68315;48.608;11.436;2023-05-07T02:55:51;2.55;;;1.15;;
78916;SDS011;68315;48.608;11.436;2023-05-07T02:58:17;1.30;;;1.20;;
78916;SDS011;68315;48.608;11.436;2023-05-07T03:00:42;1.77;;;1.67;;
78916;SDS011;68315;48.608;11.436;2023-05-07T03:03:07;2.97;;;2.10;;
78916;SDS011;68315;48.608;11.436;2023-05-07T03:05:33;2.80;;;2.13;;
78916;SDS011;68315;48.608;11.436;2023-05-07T03:07:58;3.03;;;1.75;;
78916;SDS011;68315;48.608;11.436;2023-05-07T03:10:23;1.80;;;1.50;;
78916;SDS011;68315;48.608;11.436;2023-05-07T03:12:48;1.98;;;1.73;;
78916;SDS011;68315;48.608;11.436;2023-05-07T03:15:14;1.60;;;1.50;;
78916;SDS011;68315;48.608;11.436;2023-05-07T03:17:39;1.77;;;1.67;;
78916;SDS011;68315;48.608;11.436;2023-05-07T03:20:05;1.38;;;1.27;;
78916;SDS011;68315;48.608;11.436;2023-05-07T03:22:30;1.70;;;1.60;;
78916;SDS011;68315;48.608;11.436;2023-05-07T03:24:56;5.28;;;2.22;;
78916;SDS011;68315;48.608;11.436;2023-05-07T03:27:21;2.35;;;2.10;;
78916;SDS011;68315;48.608;11.436;2023-05-07T03:29:47;2.90;;;2.60;;
78916;SDS011;68315;48.608;11.436;2023-05-07T03:32:12;2.00;;;1.88;;
78916;SDS011;68315;48.608;11.436;2023-05-07T03:34:38;1.65;;;1.55;;
78916;SDS011;68315;48.608;11.436;2023-05-07T03:37:03;2.70;;;1.55;;
78916;SDS011;68315;48.608;11.436;2023-05-07T03:39:28;1.60;;;1.50;;
78916;SDS011;68315;48.608;11.436;2023-05-07T03:41:53;1.58;;;1.48;;
78916;SDS011;68315;48.608;11.436;2023-05-07T03:44:19;1.98;;;1.65;;
78916;SDS011;68315;48.608;11.436;2023-05-07T03:46:44;1.75;;;1.65;;
78916;SDS011;68315;48.608;11.436;2023-05-07T03:49:10;1.67;;;1.58;;
78916;SDS011;68315;48.608;11.436;2023-05-07T03:51:35;1.70;;;1.48;;
78916;SDS011;68315;48.608;11.436;2023-05-07T03:54:01;1.63;;;1.52;;
78916;SDS011;68315;48.608;11.436;2023-05-07T03:56:26;2.17;;;1.42;;
78916;SDS011;68315;48.608;11.436;2023-05-07T03:58:52;1.42;;;1.33;;
78916;SDS011;68315;48.608;11.436;2023-05-07T04:01:18;1.48;;;1.20;;
78916;SDS011;68315;48.608;11.436;2023-05-07T04:03:43;1.30;;;1.20;;
78916;SDS011;68315;48.608;11.436;2023-05-07T04:06:08;1.15;;;1.05;;
78916;SDS011;68315;48.608;11.436;2023-05-07T04:08:33;1.30;;;1.20;;
78916;SDS011;68315;48.608;11.436;2023-05-07T04:10:59;2.47;;;1.58;;
78916;SDS011;68315;48.608;11.436;2023-05-07T04:13:24;1.52;;;1.42;;
78916;SDS011;68315;48.608;11.436;2023-05-07T04:15:50;1.45;;;1.35;;
78916;SDS011;68315;48.608;11.436;2023-05-07T04:18:16;1.33;;;1.15;;
78916;SDS011;68315;48.608;11.436;2023-05-07T04:20:41;1.40;;;1.30;;
78916;SDS011;68315;48.608;11.436;2023-05-07T04:23:07;1.55;;;1.45;;
78916;SDS011;68315;48.608;11.436;2023-05-07T04:25:32;1.60;;;1.20;;
78916;SDS011;68315;48.608;11.436;2023-05-07T04:27:58;1.40;;;1.30;;
78916;SDS011;68315;48.608;11.436;2023-05-07T04:30:23;1.77;;;1.67;;
78916;SDS011;68315;48.608;11.436;2023-05-07T04:32:48;3.63;;;2.78;;
78916;SDS011;68315;48.608;11.436;2023-05-07T04:35:14;2.20;;;2.00;;
78916;SDS011;68315;48.608;11.436;2023-05-07T04:37:39;1.90;;;1.80;;
78916;SDS011;68315;48.608;11.436;2023-05-07T04:40:05;1.67;;;1.55;;
78916;SDS011;68315;48.608;11.436;2023-05-07T04:42:31;4.20;;;1.85;;
78916;SDS011;68315;48.608;11.436;2023-05-07T04:44:57;4.80;;;2.10;;
78916;SDS011;68315;48.608;11.436;2023-05-07T04:47:22;2.20;;;2.00;;
78916;SDS011;68315;48.608;11.436;2023-05-07T04:49:47;2.05;;;1.88;;
78916;SDS011;68315;48.608;11.436;2023-05-07T04:52:12;5.30;;;3.40;;
78916;SDS011;68315;48.608;11.436;2023-05-07T04:54:38;3.50;;;3.20;;
78916;SDS011;68315;48.608;11.436;2023-05-07T04:57:03;3.88;;;2.88;;
78916;SDS011;68315;48.608;11.436;2023-05-07T04:59:29;2.35;;;2.15;;
78916;SDS011;68315;48.608;11.436;2023-05-07T05:01:55;3.00;;;2.70;;
78916;SDS011;68315;48.608;11.436;2023-05-07T05:04:20;2.47;;;2.28;;
78916;SDS011;68315;48.608;11.436;2023-05-07T05:06:45;2.50;;;2.30;;
78916;SDS011;68315;48.608;11.436;2023-05-07T05:09:11;3.65;;;2.60;;
78916;SDS011;68315;48.608;11.436;2023-05-07T05:11:36;2.80;;;2.60;;
78916;SDS011;68315;48.608;11.436;2023-05-07T05:14:01;3.25;;;2.95;;
78916;SDS011;68315;48.608;11.436;2023-05-07T05:16:27;4.50;;;3.45;;
78916;SDS011;68315;48.608;11.436;2023-05-07T05:18:52;3.28;;;2.97;;
78916;SDS011;68315;48.608;11.436;2023-05-07T05:21:19;5.38;;;2.80;;
78916;SDS011;68315;48.608;11.436;2023-05-07T05:23:44;4.55;;;4.10;;
78916;SDS011;68315;48.608;11.436;2023-05-07T05:26:10;3.60;;;3.25;;
78916;SDS011;68315;48.608;11.436;2023-05-07T05:28:35;5.78;;;3.70;;
78916;SDS011;68315;48.608;11.436;2023-05-07T05:31:00;4.15;;;3.75;;
78916;SDS011;68315;48.608;11.436;2023-05-07T05:33:26;4.75;;;3.17;;
78916;SDS011;68315;48.608;11.436;2023-05-07T05:35:53;5.30;;;3.40;;
78916;SDS011;68315;48.608;11.436;2023-05-07T05:38:19;4.53;;;3.28;;
78916;SDS011;68315;48.608;11.436;2023-05-07T05:40:45;3.85;;;3.38;;
78916;SDS011;68315;48.608;11.436;2023-05-07T05:43:11;4.43;;;4.03;;
78916;SDS011;68315;48.608;11.436;2023-05-07T05:45:36;3.92;;;3.45;;
78916;SDS011;68315;48.608;11.436;2023-05-07T05:48:01;3.53;;;3.22;;
78916;SDS011;68315;48.608;11.436;2023-05-07T05:50:27;3.53;;;3.22;;
78916;SDS011;68315;48.608;11.436;2023-05-07T05:52:52;3.92;;;3.10;;
78916;SDS011;68315;48.608;11.436;2023-05-07T05:55:17;3.83;;;3.42;;
78916;SDS011;68315;48.608;11.436;2023-05-07T05:57:42;3.75;;;3.40;;
78916;SDS011;68315;48.608;11.436;2023-05-07T06:00:08;2.80;;;2.60;;
78916;SDS011;68315;48.608;11.436;2023-05-07T06:02:34;5.20;;;3.42;;
78916;SDS011;68315;48.608;11.436;2023-05-07T06:04:59;5.32;;;4.78;;
78916;SDS011;68315;48.608;11.436;2023-05-07T06:07:24;3.75;;;3.45;;
78916;SDS011;68315;48.608;11.436;2023-05-07T06:09:50;3.70;;;3.40;;
78916;SDS011;68315;48.608;11.436;2023-05-07T06:12:15;5.10;;;4.32;;
78916;SDS011;68315;48.608;11.436;2023-05-07T06:14:42;6.03;;;3.78;;
78916;SDS011;68315;48.608;11.436;2023-05-07T06:17:08;5.38;;;4.88;;
78916;SDS011;68315;48.608;11.436;2023-05-07T06:19:33;4.63;;;4.22;;
78916;SDS011;68315;48.608;11.436;2023-05-07T06:21:59;4.40;;;4.00;;
78916;SDS011;68315;48.608;11.436;2023-05-07T06:24:26;3.95;;;3.60;;
78916;SDS011;68315;48.608;11.436;2023-05-07T06:26:51;5.30;;;4.80;;
78916;SDS011;68315;48.608;11.436;2023-05-07T06:29:16;4.88;;;4.15;;
78916;SDS011;68315;48.608;11.436;2023-05-07T06:31:42;7.07;;;5.18;;
78916;SDS011;68315;48.608;11.436;2023-05-07T06:34:10;6.35;;;5.07;;
78916;SDS011;68315;48.608;11.436;2023-05-07T06:36:39;6.13;;;4.82;;
78916;SDS011;68315;48.608;11.436;2023-05-07T06:39:04;6.30;;;4.38;;
78916;SDS011;68315;48.608;11.436;2023-05-07T06:41:30;5.50;;;4.95;;
78916;SDS011;68315;48.608;11.436;2023-05-07T06:43:55;4.63;;;4.22;;
78916;SDS011;68315;48.608;11.436;2023-05-07T06:46:20;5.63;;;5.13;;
78916;SDS011;68315;48.608;11.436;2023-05-07T06:48:46;4.65;;;4.15;;
78916;SDS011;68315;48.608;11.436;2023-05-07T06:51:11;6.30;;;4.05;;
78916;SDS011;68315;48.608;11.436;2023-05-07T06:53:36;3.75;;;3.35;;
78916;SDS011;68315;48.608;11.436;2023-05-07T06:56:02;5.28;;;4.43;;
78916;SDS011;68315;48.608;11.436;2023-05-07T06:58:27;4.97;;;4.55;;
78916;SDS011;68315;48.608;11.436;2023-05-07T07:00:52;5.15;;;4.10;;
78916;SDS011;68315;48.608;11.436;2023-05-07T07:03:18;4.20;;;3.80;;
78916;SDS011;68315;48.608;11.436;2023-05-07T07:05:52;3.95;;;3.63;;
78916;SDS011;68315;48.608;11.436;2023-05-07T07:08:27;4.28;;;3.88;;
78916;SDS011;68315;48.608;11.436;2023-05-07T07:10:52;5.93;;;4.78;;
78916;SDS011;68315;48.608;11.436;2023-05-07T07:13:18;5.55;;;4.70;;
78916;SDS011;68315;48.608;11.436;2023-05-07T07:15:48;6.18;;;4.07;;
78916;SDS011;68315;48.608;11.436;2023-05-07T07:18:13;5.20;;;4.18;;
78916;SDS011;68315;48.608;11.436;2023-05-07T07:20:41;4.60;;;4.20;;
78916;SDS011;68315;48.608;11.436;2023-05-07T07:23:09;4.50;;;4.10;;
78916;SDS011;68315;48.608;11.436;2023-05-07T07:25:34;3.85;;;3.55;;
78916;SDS011;68315;48.608;11.436;2023-05-07T07:28:02;5.05;;;4.55;;
78916;SDS011;68315;48.608;11.436;2023-05-07T07:30:28;4.93;;;4.43;;
78916;SDS011;68315;48.608;11.436;2023-05-07T07:32:53;4.72;;;4.22;;
78916;SDS011;68315;48.608;11.436;2023-05-07T07:35:19;5.57;;;4.43;;
78916;SDS011;68315;48.608;11.436;2023-05-07T07:37:44;5.32;;;4.68;;
78916;SDS011;68315;48.608;11.436;2023-05-07T07:40:10;4.68;;;4.25;;
78916;SDS011;68315;48.608;11.436;2023-05-07T07:42:36;5.53;;;5.03;;
78916;SDS011;68315;48.608;11.436;2023-05-07T07:45:05;6.55;;;4.07;;
78916;SDS011;68315;48.608;11.436;2023-05-07T07:50:52;5.05;;;4.57;;
78916;SDS011;68315;48.608;11.436;2023-05-07T07:53:18;4.70;;;4.30;;
78916;SDS011;68315;48.608;11.436;2023-05-07T08:01:42;7.68;;;4.70;;
78916;SDS011;68315;48.608;11.436;2023-05-07T08:04:07;4.40;;;4.00;;
78916;SDS011;68315;48.608;11.436;2023-05-07T08:12:09;4.93;;;4.40;;
78916;SDS011;68315;48.608;11.436;2023-05-07T08:14:40;6.10;;;4.53;;
78916;SDS011;68315;48.608;11.436;2023-05-07T08:17:09;5.25;;;4.50;;
78916;SDS011;68315;48.608;11.436;2023-05-07T08:19:35;3.92;;;3.58;;
78916;SDS011;68315;48.608;11.436;2023-05-07T08:22:00;5.18;;;4.22;;
78916;SDS011;68315;48.608;11.436;2023-05-07T08:24:27;4.80;;;4.22;;
78916;SDS011;68315;48.608;11.436;2023-05-07T08:26:52;4.90;;;4.47;;
78916;SDS011;68315;48.608;11.436;2023-05-07T08:29:18;4.43;;;4.03;;
78916;SDS011;68315;48.608;11.436;2023-05-07T08:31:43;3.85;;;3.45;;
78916;SDS011;68315;48.608;11.436;2023-05-07T08:34:08;4.82;;;4.40;;
78916;SDS011;68315;48.608;11.436;2023-05-07T08:36:35;4.70;;;4.18;;
78916;SDS011;68315;48.608;11.436;2023-05-07T08:39:00;4.30;;;3.90;;
78916;SDS011;68315;48.608;11.436;2023-05-07T08:41:25;5.00;;;4.50;;
78916;SDS011;68315;48.608;11.436;2023-05-07T08:43:51;5.07;;;4.00;;
78916;SDS011;68315;48.608;11.436;2023-05-07T08:46:17;5.25;;;4.40;;
78916;SDS011;68315;48.608;11.436;2023-05-07T08:48:49;4.40;;;4.00;;
78916;SDS011;68315;48.608;11.436;2023-05-07T08:51:17;4.93;;;3.60;;
78916;SDS011;68315;48.608;11.436;2023-05-07T08:53:44;6.72;;;4.15;;
78916;SDS011;68315;48.608;11.436;2023-05-07T08:56:10;4.78;;;4.35;;
78916;SDS011;68315;48.608;11.436;2023-05-07T08:58:36;6.55;;;4.25;;
78916;SDS011;68315;48.608;11.436;2023-05-07T09:01:08;4.32;;;3.95;;
78916;SDS011;68315;48.608;11.436;2023-05-07T09:03:37;4.07;;;3.67;;
78916;SDS011;68315;48.608;11.436;2023-05-07T09:06:04;5.57;;;4.47;;
78916;SDS011;68315;48.608;11.436;2023-05-07T09:08:29;3.20;;;3.00;;
78916;SDS011;68315;48.608;11.436;2023-05-07T09:10:55;3.45;;;3.15;;
78916;SDS011;68315;48.608;11.436;2023-05-07T09:13:20;3.30;;;3.00;;
78916;SDS011;68315;48.608;11.436;2023-05-07T09:15:45;4.80;;;4.30;;
78916;SDS011;68315;48.608;11.436;2023-05-07T09:18:11;4.25;;;3.30;;
78916;SDS011;68315;48.608;11.436;2023-05-07T09:20:37;3.67;;;3.30;;
78916;SDS011;68315;48.608;11.436;2023-05-07T09:23:03;4.10;;;3.47;;
78916;SDS011;68315;48.608;11.436;2023-05-07T09:25:29;5.18;;;3.03;;
78916;SDS011;68315;48.608;11.436;2023-05-07T09:27:55;3.13;;;2.80;;
78916;SDS011;68315;48.608;11.436;2023-05-07T09:30:21;3.50;;;3.17;;
78916;SDS011;68315;48.608;11.436;2023-05-07T09:32:46;4.57;;;3.40;;
78916;SDS011;68315;48.608;11.436;2023-05-07T09:35:17;2.40;;;2.20;;
78916;SDS011;68315;48.608;11.436;2023-05-07T09:37:43;3.80;;;3.40;;
78916;SDS011;68315;48.608;11.436;2023-05-07T09:40:08;2.45;;;2.25;;
78916;SDS011;68315;48.608;11.436;2023-05-07T09:42:45;3.20;;;2.63;;
78916;SDS011;68315;48.608;11.436;2023-05-07T09:45:12;4.38;;;2.80;;
78916;SDS011;68315;48.608;11.436;2023-05-07T09:47:37;3.47;;;2.63;;
78916;SDS011;68315;48.608;11.436;2023-05-07T09:50:05;3.40;;;3.10;;
78916;SDS011;68315;48.608;11.436;2023-05-07T09:52:33;3.03;;;2.83;;
78916;SDS011;68315;48.608;11.436;2023-05-07T09:55:00;2.80;;;2.50;;
78916;SDS011;68315;48.608;11.436;2023-05-07T09:57:27;3.25;;;2.35;;
78916;SDS011;68315;48.608;11.436;2023-05-07T09:59:54;2.10;;;2.00;;
78916;SDS011;68315;48.608;11.436;2023-05-07T10:02:21;2.45;;;2.25;;
78916;SDS011;68315;48.608;11.436;2023-05-07T10:04:47;2.78;;;2.00;;
78916;SDS011;68315;48.608;11.436;2023-05-07T10:07:13;3.75;;;1.98;;
78916;SDS011;68315;48.608;11.436;2023-05-07T10:09:39;1.98;;;1.80;;
78916;SDS011;68315;48.608;11.436;2023-05-07T10:12:07;3.65;;;2.10;;
78916;SDS011;68315;48.608;11.436;2023-05-07T10:14:32;2.10;;;2.00;;
78916;SDS011;68315;48.608;11.436;2023-05-07T10:16:58;4.80;;;2.25;;
78916;SDS011;68315;48.608;11.436;2023-05-07T10:19:25;2.45;;;1.83;;
78916;SDS011;68315;48.608;11.436;2023-05-07T10:21:53;2.30;;;2.10;;
78916;SDS011;68315;48.608;11.436;2023-05-07T10:24:24;2.05;;;1.70;;
78916;SDS011;68315;48.608;11.436;2023-05-07T10:26:51;1.90;;;1.80;;
78916;SDS011;68315;48.608;11.436;2023-05-07T10:31:55;2.17;;;1.70;;
78916;SDS011;68315;48.608;11.436;2023-05-07T10:34:26;2.22;;;2.03;;
78916;SDS011;68315;48.608;11.436;2023-05-07T10:36:57;2.40;;;2.00;;
78916;SDS011;68315;48.608;11.436;2023-05-07T10:39:23;2.53;;;1.70;;
78916;SDS011;68315;48.608;11.436;2023-05-07T10:41:48;2.20;;;1.60;;
78916;SDS011;68315;48.608;11.436;2023-05-07T10:44:29;2.00;;;1.80;;
78916;SDS011;68315;48.608;11.436;2023-05-07T10:49:29;1.80;;;1.70;;
78916;SDS011;68315;48.608;11.436;2023-05-07T10:52:14;1.83;;;1.70;;
78916;SDS011;68315;48.608;11.436;2023-05-07T10:54:41;5.57;;;1.95;;
78916;SDS011;68315;48.608;11.436;2023-05-07T11:00:00;1.80;;;1.70;;
78916;SDS011;68315;48.608;11.436;2023-05-07T11:05:26;1.88;;;1.77;;
78916;SDS011;68315;48.608;11.436;2023-05-07T11:07:57;3.13;;;1.58;;
78916;SDS011;68315;48.608;11.436;2023-05-07T11:10:47;1.60;;;1.50;;
78916;SDS011;68315;48.608;11.436;2023-05-07T11:13:16;1.48;;;1.33;;
78916;SDS011;68315;48.608;11.436;2023-05-07T11:15:46;2.78;;;1.92;;
78916;SDS011;68315;48.608;11.436;2023-05-07T11:18:13;2.95;;;1.67;;
78916;SDS011;68315;48.608;11.436;2023-05-07T11:26:04;3.25;;;1.95;;
78916;SDS011;68315;48.608;11.436;2023-05-07T11:28:37;1.80;;;1.70;;
78916;SDS011;68315;48.608;11.436;2023-05-07T11:31:04;5.30;;;1.60;;
78916;SDS011;68315;48.608;11.436;2023-05-07T11:33:29;1.67;;;1.58;;
78916;SDS011;68315;48.608;11.436;2023-05-07T11:35:55;1.92;;;1.60;;
78916;SDS011;68315;48.608;11.436;2023-05-07T11:38:21;1.90;;;1.80;;
78916;SDS011;68315;48.608;11.436;2023-05-07T11:40:48;2.10;;;1.77;;
78916;SDS011;68315;48.608;11.436;2023-05-07T11:43:14;1.85;;;1.20;;
78916;SDS011;68315;48.608;11.436;2023-05-07T11:45:40;2.05;;;1.20;;
78916;SDS011;68315;48.608;11.436;2023-05-07T11:48:05;1.80;;;1.40;;
78916;SDS011;68315;48.608;11.436;2023-05-07T11:50:30;1.48;;;1.38;;
78916;SDS011;68315;48.608;11.436;2023-05-07T11:52:55;2.17;;;1.63;;
78916;SDS011;68315;48.608;11.436;2023-05-07T11:55:21;3.10;;;1.53;;
78916;SDS011;68315;48.608;11.436;2023-05-07T11:57:49;2.85;;;1.50;;
78916;SDS011;68315;48.608;11.436;2023-05-07T12:00:15;1.30;;;1.13;;
78916;SDS011;68315;48.608;11.436;2023-05-07T12:02:41;2.00;;;1.20;;
78916;SDS011;68315;48.608;11.436;2023-05-07T12:05:07;1.90;;;1.30;;
78916;SDS011;68315;48.608;11.436;2023-05-07T12:07:33;1.50;;;1.40;;
78916;SDS011;68315;48.608;11.436;2023-05-07T12:09:59;1.92;;;1.70;;
78916;SDS011;68315;48.608;11.436;2023-05-07T12:12:24;1.60;;;1.50;;
78916;SDS011;68315;48.608;11.436;2023-05-07T12:14:49;2.55;;;1.83;;
78916;SDS011;68315;48.608;11.436;2023-05-07T12:17:15;1.97;;;1.77;;
78916;SDS011;68315;48.608;11.436;2023-05-07T12:19:42;2.10;;;1.50;;
78916;SDS011;68315;48.608;11.436;2023-05-07T12:22:08;1.63;;;1.52;;
78916;SDS011;68315;48.608;11.436;2023-05-07T12:24:49;1.92;;;1.42;;
78916;SDS011;68315;48.608;11.436;2023-05-07T12:27:22;1.98;;;1.40;;
78916;SDS011;68315;48.608;11.436;2023-05-07T12:29:48;1.83;;;1.73;;
78916;SDS011;68315;48.608;11.436;2023-05-07T12:32:18;3.88;;;1.58;;
78916;SDS011;68315;48.608;11.436;2023-05-07T12:34:45;1.42;;;1.13;;
78916;SDS011;68315;48.608;11.436;2023-05-07T12:37:10;1.30;;;1.20;;
78916;SDS011;68315;48.608;11.436;2023-05-07T12:39:37;2.13;;;1.85;;
78916;SDS011;68315;48.608;11.436;2023-05-07T12:42:03;1.58;;;1.30;;
78916;SDS011;68315;48.608;11.436;2023-05-07T12:44:29;1.77;;;1.50;;
78916;SDS011;68315;48.608;11.436;2023-05-07T12:46:56;1.55;;;1.45;;
78916;SDS011;68315;48.608;11.436;2023-05-07T12:49:22;1.73;;;1.48;;
78916;SDS011;68315;48.608;11.436;2023-05-07T12:51:48;2.03;;;1.58;;
78916;SDS011;68315;48.608;11.436;2023-05-07T12:54:27;2.17;;;1.83;;
78916;SDS011;68315;48.608;11.436;2023-05-07T12:57:05;1.70;;;1.60;;
78916;SDS011;68315;48.608;11.436;2023-05-07T12:59:36;2.25;;;1.70;;
78916;SDS011;68315;48.608;11.436;2023-05-07T13:02:02;3.83;;;1.70;;
78916;SDS011;68315;48.608;11.436;2023-05-07T13:04:27;3.10;;;2.10;;
78916;SDS011;68315;48.608;11.436;2023-05-07T13:06:52;2.87;;;1.40;;
78916;SDS011;68315;48.608;11.436;2023-05-07T13:09:17;1.77;;;1.60;;
78916;SDS011;68315;48.608;11.436;2023-05-07T13:11:43;9.38;;;1.90;;
78916;SDS011;68315;48.608;11.436;2023-05-07T13:14:08;2.20;;;1.30;;
78916;SDS011;68315;48.608;11.436;2023-05-07T13:16:33;1.50;;;1.40;;
78916;SDS011;68315;48.608;11.436;2023-05-07T13:18:59;1.20;;;1.10;;
78916;SDS011;68315;48.608;11.436;2023-05-07T13:21:24;1.85;;;1.42;;
78916;SDS011;68315;48.608;11.436;2023-05-07T13:23:50;1.88;;;1.60;;
78916;SDS011;68315;48.608;11.436;2023-05-07T13:26:15;1.48;;;1.38;;
78916;SDS011;68315;48.608;11.436;2023-05-07T13:28:41;2.03;;;1.50;;
78916;SDS011;68315;48.608;11.436;2023-05-07T13:31:06;1.63;;;1.52;;
78916;SDS011;68315;48.608;11.436;2023-05-07T13:33:32;1.88;;;1.50;;
78916;SDS011;68315;48.608;11.436;2023-05-07T13:35:57;1.60;;;1.50;;
78916;SDS011;68315;48.608;11.436;2023-05-07T13:38:22;1.50;;;1.40;;
78916;SDS011;68315;48.608;11.436;2023-05-07T13:40:48;1.53;;;1.37;;
78916;SDS011;68315;48.608;11.436;2023-05-07T13:43:13;1.73;;;1.47;;
78916;SDS011;68315;48.608;11.436;2023-05-07T13:45:39;2.45;;;1.10;;
78916;SDS011;68315;48.608;11.436;2023-05-07T13:48:04;1.93;;;1.50;;
78916;SDS011;68315;48.608;11.436;2023-05-07T13:50:30;1.65;;;1.30;;
78916;SDS011;68315;48.608;11.436;2023-05-07T13:52:55;3.55;;;1.55;;
78916;SDS011;68315;48.608;11.436;2023-05-07T13:55:21;2.90;;;1.60;;
78916;SDS011;68315;48.608;11.436;2023-05-07T13:57:48;2.20;;;1.70;;
78916;SDS011;68315;48.608;11.436;2023-05-07T14:00:20;2.75;;;1.40;;
78916;SDS011;68315;48.608;11.436;2023-05-07T14:02:46;3.33;;;1.20;;
78916;SDS011;68315;48.608;11.436;2023-05-07T14:05:11;4.03;;;1.77;;
78916;SDS011;68315;48.608;11.436;2023-05-07T14:07:39;2.25;;;1.30;;
78916;SDS011;68315;48.608;11.436;2023-05-07T14:10:05;1.30;;;1.20;;
78916;SDS011;68315;48.608;11.436;2023-05-07T14:12:31;1.83;;;1.10;;
78916;SDS011;68315;48.608;11.436;2023-05-07T14:14:57;2.50;;;1.30;;
78916;SDS011;68315;48.608;11.436;2023-05-07T14:17:22;1.27;;;1.17;;
78916;SDS011;68315;48.608;11.436;2023-05-07T14:19:50;1.30;;;1.20;;
78916;SDS011;68315;48.608;11.436;2023-05-07T14:22:15;1.50;;;1.20;;
78916;SDS011;68315;48.608;11.436;2023-05-07T14:24:40;1.20;;;1.10;;
78916;SDS011;68315;48.608;11.436;2023-05-07T14:27:06;1.73;;;1.63;;
78916;SDS011;68315;48.608;11.436;2023-05-07T14:29:31;2.35;;;1.45;;
78916;SDS011;68315;48.608;11.436;2023-05-07T14:31:57;2.35;;;1.23;;
78916;SDS011;68315;48.608;11.436;2023-05-07T14:34:22;1.70;;;1.37;;
78916;SDS011;68315;48.608;11.436;2023-05-07T14:36:47;1.55;;;1.35;;
78916;SDS011;68315;48.608;11.436;2023-05-07T14:39:12;1.33;;;1.13;;
78916;SDS011;68315;48.608;11.436;2023-05-07T14:41:38;1.52;;;1.30;;
78916;SDS011;68315;48.608;11.436;2023-05-07T14:44:03;1.25;;;1.15;;
78916;SDS011;68315;48.608;11.436;2023-05-07T14:46:29;1.17;;;1.08;;
78916;SDS011;68315;48.608;11.436;2023-05-07T14:48:54;1.67;;;1.58;;
78916;SDS011;68315;48.608;11.436;2023-05-07T14:51:20;1.70;;;1.50;;
78916;SDS011;68315;48.608;11.436;2023-05-07T14:53:45;1.90;;;1.42;;
78916;SDS011;68315;48.608;11.436;2023-05-07T14:56:11;1.40;;;1.23;;
78916;SDS011;68315;48.608;11.436;2023-05-07T14:58:36;1.70;;;1.50;;